createdAt,value
2023-04-30T00:00:23.922Z,23.02
2023-04-30T00:01:23.971Z,23.01
2023-04-30T00:02:24.132Z,23.01
2023-04-30T00:03:24.145Z,23.01
2023-04-30T00:04:24.164Z,23.01
2023-04-30T00:05:24.200Z,23.02
2023-04-30T00:06:25.533Z,23.01
2023-04-30T00:07:24.390Z,23.01
2023-04-30T00:08:24.487Z,23.02
2023-04-30T00:09:24.535Z,23.01
2023-04-30T00:10:24.560Z,23.01
2023-04-30T00:11:24.619Z,23.01
2023-04-30T00:12:24.655Z,23.01
2023-04-30T00:13:24.726Z,23.01
2023-04-30T00:14:24.784Z,23.01
2023-04-30T00:15:24.867Z,23.01
2023-04-30T00:16:24.959Z,23.01
2023-04-30T00:17:25.053Z,23.00
2023-04-30T00:18:25.007Z,23.00
2023-04-30T00:19:25.091Z,23.00
2023-04-30T00:20:25.175Z,23.00
2023-04-30T00:21:25.180Z,23.00
2023-04-30T00:22:25.304Z,23.00
2023-04-30T00:23:25.308Z,23.00
2023-04-30T00:24:25.379Z,23.00
2023-04-30T00:25:25.400Z,23.01
2023-04-30T00:26:25.500Z,23.00
2023-04-30T00:27:25.552Z,23.00
2023-04-30T00:28:25.575Z,23.00
2023-04-30T00:29:25.620Z,23.00
2023-04-30T00:30:25.693Z,23.00
2023-04-30T00:31:25.742Z,23.00
2023-04-30T00:32:25.821Z,23.01
2023-04-30T00:33:25.855Z,23.00
2023-04-30T00:34:25.920Z,23.00
2023-04-30T00:35:26.009Z,23.00
2023-04-30T00:36:26.024Z,23.00
2023-04-30T00:37:26.090Z,23.00
2023-04-30T00:38:26.150Z,23.00
2023-04-30T00:39:26.193Z,23.00
2023-04-30T00:40:26.239Z,23.00
2023-04-30T00:41:26.309Z,23.00
2023-04-30T00:42:26.384Z,23.00
2023-04-30T00:43:26.446Z,23.00
2023-04-30T00:44:26.521Z,23.00
2023-04-30T00:45:26.540Z,23.01
2023-04-30T00:46:26.593Z,23.00
2023-04-30T00:47:26.684Z,23.00
2023-04-30T00:48:26.699Z,23.00
2023-04-30T00:49:26.745Z,23.00
2023-04-30T00:50:26.782Z,23.00
2023-04-30T00:51:26.848Z,23.00
2023-04-30T00:52:26.898Z,23.00
2023-04-30T00:53:26.936Z,22.99
2023-04-30T00:54:27.004Z,23.00
2023-04-30T00:55:27.080Z,22.99
2023-04-30T00:56:27.148Z,22.99
2023-04-30T00:57:27.175Z,22.99
2023-04-30T00:58:27.237Z,22.99
2023-04-30T00:59:27.314Z,22.99
2023-04-30T01:00:27.319Z,22.99
2023-04-30T01:01:27.436Z,22.99
2023-04-30T01:02:27.505Z,22.99
2023-04-30T01:03:27.597Z,22.99
2023-04-30T01:04:27.553Z,22.99
2023-04-30T01:05:27.616Z,22.99
2023-04-30T01:06:27.762Z,22.99
2023-04-30T01:07:27.709Z,22.99
2023-04-30T01:08:27.746Z,22.99
2023-04-30T01:09:27.801Z,22.98
2023-04-30T01:10:27.888Z,22.99
2023-04-30T01:11:27.938Z,22.99
2023-04-30T01:12:27.958Z,22.99
2023-04-30T01:13:27.988Z,22.99
2023-04-30T01:14:28.053Z,22.99
2023-04-30T01:15:28.108Z,22.99
2023-04-30T01:16:28.269Z,22.99
2023-04-30T01:17:28.251Z,22.99
2023-04-30T01:18:28.475Z,22.99
2023-04-30T01:19:28.349Z,22.98
2023-04-30T01:20:28.389Z,22.98
2023-04-30T01:21:28.448Z,22.99
2023-04-30T01:22:28.528Z,22.99
2023-04-30T01:23:28.572Z,22.98
2023-04-30T01:24:28.638Z,22.98
2023-04-30T01:25:28.713Z,22.98
2023-04-30T01:26:28.775Z,22.98
2023-04-30T01:27:28.839Z,22.98
2023-04-30T01:28:28.873Z,22.97
2023-04-30T01:29:28.937Z,22.97
2023-04-30T01:30:28.998Z,22.98
2023-04-30T01:31:29.154Z,22.98
2023-04-30T01:32:29.132Z,22.98
2023-04-30T01:33:29.168Z,22.98
2023-04-30T01:34:29.238Z,22.98
2023-04-30T01:35:29.295Z,22.98
2023-04-30T01:36:29.379Z,22.97
2023-04-30T01:37:29.393Z,22.98
2023-04-30T01:38:29.466Z,22.97
2023-04-30T01:39:29.540Z,22.97
2023-04-30T01:40:29.635Z,22.97
2023-04-30T01:41:29.647Z,22.97
2023-04-30T01:42:29.693Z,22.97
2023-04-30T01:43:29.762Z,22.97
2023-04-30T01:44:29.831Z,22.97
2023-04-30T01:45:29.879Z,22.97
2023-04-30T01:46:30.035Z,22.97
2023-04-30T01:47:30.024Z,22.97
2023-04-30T01:48:30.046Z,22.97
2023-04-30T01:49:30.130Z,22.97
2023-04-30T01:50:30.197Z,22.97
2023-04-30T01:51:30.401Z,22.97
2023-04-30T01:52:30.287Z,22.97
2023-04-30T01:53:30.364Z,22.97
2023-04-30T01:54:30.428Z,22.97
2023-04-30T01:55:30.520Z,22.97
2023-04-30T01:56:30.563Z,22.97
2023-04-30T01:57:30.627Z,22.97
2023-04-30T01:58:30.652Z,22.96
2023-04-30T01:59:30.724Z,22.97
2023-04-30T02:00:30.839Z,22.97
2023-04-30T02:01:30.954Z,22.97
2023-04-30T02:02:30.985Z,22.96
2023-04-30T02:03:31.042Z,22.97
2023-04-30T02:04:31.017Z,22.97
2023-04-30T02:05:31.068Z,22.97
2023-04-30T02:06:31.225Z,22.97
2023-04-30T02:07:31.224Z,22.96
2023-04-30T02:08:31.253Z,22.96
2023-04-30T02:09:31.348Z,22.97
2023-04-30T02:10:31.394Z,22.96
2023-04-30T02:11:31.460Z,22.96
2023-04-30T02:12:31.532Z,22.96
2023-04-30T02:13:31.541Z,22.96
2023-04-30T02:14:31.614Z,22.95
2023-04-30T02:15:31.676Z,22.96
2023-04-30T02:16:31.744Z,22.96
2023-04-30T02:17:31.817Z,22.96
2023-04-30T02:18:31.829Z,22.95
2023-04-30T02:19:31.901Z,22.96
2023-04-30T02:20:31.976Z,22.95
2023-04-30T02:21:32.045Z,22.95
2023-04-30T02:22:32.106Z,22.95
2023-04-30T02:23:32.142Z,22.96
2023-04-30T02:24:32.193Z,22.95
2023-04-30T02:25:32.269Z,22.96
2023-04-30T02:26:32.349Z,22.95
2023-04-30T02:27:32.367Z,22.94
2023-04-30T02:28:32.446Z,22.95
2023-04-30T02:29:32.512Z,22.94
2023-04-30T02:30:32.522Z,22.94
2023-04-30T02:31:32.652Z,22.94
2023-04-30T02:32:32.696Z,22.94
2023-04-30T02:33:32.730Z,22.94
2023-04-30T02:34:32.794Z,22.94
2023-04-30T02:35:32.860Z,22.94
2023-04-30T02:36:32.891Z,22.94
2023-04-30T02:37:32.974Z,22.95
2023-04-30T02:38:33.035Z,22.94
2023-04-30T02:39:33.097Z,22.94
2023-04-30T02:40:33.180Z,22.94
2023-04-30T02:41:33.256Z,22.94
2023-04-30T02:42:33.311Z,22.94
2023-04-30T02:43:33.347Z,22.94
2023-04-30T02:44:33.417Z,22.93
2023-04-30T02:45:33.538Z,22.94
2023-04-30T02:46:33.554Z,22.94
2023-04-30T02:47:33.598Z,22.94
2023-04-30T02:48:33.679Z,22.94
2023-04-30T02:49:33.697Z,22.94
2023-04-30T02:50:33.770Z,22.94
2023-04-30T02:51:33.833Z,22.93
2023-04-30T02:52:33.902Z,22.94
2023-04-30T02:53:33.941Z,22.94
2023-04-30T02:54:34.014Z,22.93
2023-04-30T02:55:34.054Z,22.94
2023-04-30T02:56:34.127Z,22.93
2023-04-30T02:57:34.210Z,22.93
2023-04-30T02:58:34.242Z,22.93
2023-04-30T02:59:34.337Z,22.93
2023-04-30T03:00:34.364Z,22.93
2023-04-30T03:01:34.458Z,22.93
2023-04-30T03:02:34.570Z,22.93
2023-04-30T03:03:34.600Z,22.93
2023-04-30T03:04:34.640Z,22.93
2023-04-30T03:05:34.674Z,22.93
2023-04-30T03:06:34.927Z,22.93
2023-04-30T03:07:34.802Z,22.93
2023-04-30T03:08:34.904Z,22.93
2023-04-30T03:09:34.946Z,22.93
2023-04-30T03:10:35.009Z,22.93
2023-04-30T03:11:35.076Z,22.93
2023-04-30T03:12:35.126Z,22.92
2023-04-30T03:13:35.216Z,22.93
2023-04-30T03:14:35.262Z,22.93
2023-04-30T03:15:35.322Z,22.93
2023-04-30T03:16:35.425Z,22.93
2023-04-30T03:17:35.517Z,22.92
2023-04-30T03:18:35.513Z,22.92
2023-04-30T03:19:35.588Z,22.92
2023-04-30T03:20:35.641Z,22.92
2023-04-30T03:21:35.692Z,22.92
2023-04-30T03:22:35.780Z,22.92
2023-04-30T03:23:35.821Z,22.92
2023-04-30T03:24:35.917Z,22.92
2023-04-30T03:25:35.956Z,22.92
2023-04-30T03:26:36.062Z,22.92
2023-04-30T03:27:36.094Z,22.92
2023-04-30T03:28:36.175Z,22.91
2023-04-30T03:29:36.209Z,22.92
2023-04-30T03:30:36.314Z,22.91
2023-04-30T03:31:36.378Z,22.91
2023-04-30T03:32:36.425Z,22.91
2023-04-30T03:33:36.551Z,22.91
2023-04-30T03:34:36.519Z,22.90
2023-04-30T03:35:36.586Z,22.91
2023-04-30T03:36:36.662Z,22.91
2023-04-30T03:37:36.749Z,22.92
2023-04-30T03:38:36.841Z,22.91
2023-04-30T03:39:36.961Z,22.91
2023-04-30T03:40:36.906Z,22.91
2023-04-30T03:41:36.969Z,22.91
2023-04-30T03:42:37.019Z,22.91
2023-04-30T03:43:37.082Z,22.91
2023-04-30T03:44:37.137Z,22.91
2023-04-30T03:45:37.213Z,22.90
2023-04-30T03:46:37.412Z,22.91
2023-04-30T03:47:37.386Z,22.91
2023-04-30T03:48:37.391Z,22.91
2023-04-30T03:49:37.498Z,22.91
2023-04-30T03:50:37.529Z,22.91
2023-04-30T03:51:37.582Z,22.91
2023-04-30T03:52:37.666Z,22.90
2023-04-30T03:53:37.707Z,22.90
2023-04-30T03:54:37.904Z,22.90
2023-04-30T03:55:37.929Z,22.90
2023-04-30T03:56:37.882Z,22.90
2023-04-30T03:57:37.933Z,22.90
2023-04-30T03:58:37.991Z,22.91
2023-04-30T03:59:38.084Z,22.90
2023-04-30T04:00:38.101Z,22.90
2023-04-30T04:01:38.248Z,22.90
2023-04-30T04:02:38.283Z,22.90
2023-04-30T04:03:38.397Z,22.90
2023-04-30T04:04:38.391Z,22.90
2023-04-30T04:05:38.449Z,22.90
2023-04-30T04:06:38.524Z,22.90
2023-04-30T04:07:38.586Z,22.90
2023-04-30T04:08:38.644Z,22.90
2023-04-30T04:09:38.725Z,22.90
2023-04-30T04:10:38.760Z,22.89
2023-04-30T04:11:38.825Z,22.89
2023-04-30T04:12:38.865Z,22.90
2023-04-30T04:13:38.966Z,22.90
2023-04-30T04:14:39.042Z,22.90
2023-04-30T04:15:39.127Z,22.89
2023-04-30T04:16:39.265Z,22.90
2023-04-30T04:17:39.307Z,22.90
2023-04-30T04:18:39.261Z,22.90
2023-04-30T04:19:39.326Z,22.89
2023-04-30T04:20:39.420Z,22.90
2023-04-30T04:21:39.462Z,22.89
2023-04-30T04:22:39.541Z,22.89
2023-04-30T04:23:39.561Z,22.89
2023-04-30T04:24:39.642Z,22.89
2023-04-30T04:25:39.697Z,22.89
2023-04-30T04:26:39.744Z,22.89
2023-04-30T04:27:39.844Z,22.90
2023-04-30T04:28:39.911Z,22.89
2023-04-30T04:29:39.975Z,22.90
2023-04-30T04:30:40.096Z,22.90
2023-04-30T04:31:40.135Z,22.88
2023-04-30T04:32:40.165Z,22.89
2023-04-30T04:33:40.212Z,22.89
2023-04-30T04:34:40.268Z,22.88
2023-04-30T04:35:40.333Z,22.88
2023-04-30T04:36:40.413Z,22.89
2023-04-30T04:37:40.442Z,22.88
2023-04-30T04:38:40.501Z,22.89
2023-04-30T04:39:40.567Z,22.88
2023-04-30T04:40:40.647Z,22.88
2023-04-30T04:41:40.728Z,22.87
2023-04-30T04:42:40.793Z,22.88
2023-04-30T04:43:40.848Z,22.88
2023-04-30T04:44:40.954Z,22.88
2023-04-30T04:45:40.977Z,22.88
2023-04-30T04:46:41.100Z,22.88
2023-04-30T04:47:41.107Z,22.87
2023-04-30T04:48:41.094Z,22.87
2023-04-30T04:49:41.152Z,22.88
2023-04-30T04:50:41.251Z,22.89
2023-04-30T04:51:41.254Z,22.88
2023-04-30T04:52:41.303Z,22.88
2023-04-30T04:53:41.358Z,22.88
2023-04-30T04:54:41.423Z,22.88
2023-04-30T04:55:41.477Z,22.87
2023-04-30T04:56:41.531Z,22.87
2023-04-30T04:57:41.600Z,22.88
2023-04-30T04:58:41.692Z,22.88
2023-04-30T04:59:41.738Z,22.88
2023-04-30T05:00:41.785Z,22.88
2023-04-30T05:01:42.004Z,22.87
2023-04-30T05:02:41.963Z,22.87
2023-04-30T05:03:42.041Z,22.87
2023-04-30T05:04:42.045Z,22.88
2023-04-30T05:05:42.123Z,22.87
2023-04-30T05:06:42.300Z,22.87
2023-04-30T05:07:42.227Z,22.88
2023-04-30T05:08:42.268Z,22.87
2023-04-30T05:09:42.449Z,22.87
2023-04-30T05:10:42.387Z,22.86
2023-04-30T05:11:42.488Z,22.87
2023-04-30T05:12:42.544Z,22.88
2023-04-30T05:13:42.597Z,22.87
2023-04-30T05:14:42.657Z,22.87
2023-04-30T05:15:42.706Z,22.87
2023-04-30T05:16:42.843Z,22.87
2023-04-30T05:17:42.852Z,22.87
2023-04-30T05:18:42.895Z,22.87
2023-04-30T05:19:42.972Z,22.87
2023-04-30T05:20:43.031Z,22.87
2023-04-30T05:21:43.075Z,22.87
2023-04-30T05:22:43.120Z,22.87
2023-04-30T05:23:43.248Z,22.87
2023-04-30T05:24:43.262Z,22.87
2023-04-30T05:25:43.339Z,22.87
2023-04-30T05:26:43.430Z,22.87
2023-04-30T05:27:45.012Z,22.87
2023-04-30T05:28:43.549Z,22.87
2023-04-30T05:29:43.571Z,22.87
2023-04-30T05:30:43.659Z,22.87
2023-04-30T05:31:43.851Z,22.88
2023-04-30T05:32:43.802Z,22.87
2023-04-30T05:33:43.825Z,22.87
2023-04-30T05:34:43.907Z,22.87
2023-04-30T05:35:43.946Z,22.87
2023-04-30T05:36:44.426Z,22.87
2023-04-30T05:37:44.066Z,22.87
2023-04-30T05:38:45.006Z,22.87
2023-04-30T05:39:44.184Z,22.88
2023-04-30T05:40:44.252Z,22.88
2023-04-30T05:41:44.310Z,22.88
2023-04-30T05:42:44.389Z,22.87
2023-04-30T05:43:44.441Z,22.87
2023-04-30T05:44:44.507Z,22.87
2023-04-30T05:45:44.577Z,22.87
2023-04-30T05:46:44.646Z,22.87
2023-04-30T05:47:44.696Z,22.88
2023-04-30T05:48:44.744Z,22.87
2023-04-30T05:49:44.822Z,22.87
2023-04-30T05:50:44.871Z,22.88
2023-04-30T05:51:44.959Z,22.88
2023-04-30T05:52:45.008Z,22.88
2023-04-30T05:53:45.060Z,22.87
2023-04-30T05:54:45.458Z,22.87
2023-04-30T05:55:45.199Z,22.88
2023-04-30T05:56:45.285Z,22.88
2023-04-30T05:57:45.325Z,22.88
2023-04-30T05:58:45.436Z,22.88
2023-04-30T05:59:45.444Z,22.88
2023-04-30T06:00:45.513Z,22.88
2023-04-30T06:01:45.602Z,22.87
2023-04-30T06:02:45.717Z,22.87
2023-04-30T06:03:45.734Z,22.88
2023-04-30T06:04:45.857Z,22.87
2023-04-30T06:05:45.966Z,22.87
2023-04-30T06:06:46.163Z,22.87
2023-04-30T06:07:46.059Z,22.87
2023-04-30T06:08:46.026Z,22.87
2023-04-30T06:09:46.519Z,22.87
2023-04-30T06:10:46.174Z,22.88
2023-04-30T06:11:46.235Z,22.87
2023-04-30T06:12:46.275Z,22.87
2023-04-30T06:13:46.345Z,22.87
2023-04-30T06:14:46.397Z,22.87
2023-04-30T06:15:46.461Z,22.88
2023-04-30T06:16:46.551Z,22.87
2023-04-30T06:17:46.656Z,22.88
2023-04-30T06:18:46.701Z,22.88
2023-04-30T06:19:46.778Z,22.88
2023-04-30T06:20:46.769Z,22.88
2023-04-30T06:21:47.025Z,22.88
2023-04-30T06:22:46.947Z,22.89
2023-04-30T06:23:46.957Z,22.89
2023-04-30T06:24:47.042Z,22.88
2023-04-30T06:25:47.085Z,22.88
2023-04-30T06:26:47.190Z,22.88
2023-04-30T06:27:47.243Z,22.89
2023-04-30T06:28:47.272Z,22.89
2023-04-30T06:29:47.372Z,22.89
2023-04-30T06:30:47.414Z,22.89
2023-04-30T06:31:47.613Z,22.90
2023-04-30T06:32:47.624Z,22.89
2023-04-30T06:33:47.594Z,22.89
2023-04-30T06:34:47.656Z,22.90
2023-04-30T06:35:47.724Z,22.90
2023-04-30T06:36:47.815Z,22.89
2023-04-30T06:37:47.845Z,22.89
2023-04-30T06:38:47.894Z,22.90
2023-04-30T06:39:47.985Z,22.90
2023-04-30T06:40:48.057Z,22.90
2023-04-30T06:41:48.116Z,22.91
2023-04-30T06:42:48.168Z,22.90
2023-04-30T06:43:48.270Z,22.91
2023-04-30T06:44:48.277Z,22.90
2023-04-30T06:45:48.362Z,22.90
2023-04-30T06:46:48.468Z,22.91
2023-04-30T06:47:48.473Z,22.91
2023-04-30T06:48:48.510Z,22.92
2023-04-30T06:49:48.571Z,22.92
2023-04-30T06:50:48.637Z,22.91
2023-04-30T06:51:48.759Z,22.92
2023-04-30T06:52:48.759Z,22.92
2023-04-30T06:53:48.830Z,22.92
2023-04-30T06:54:48.916Z,22.92
2023-04-30T06:55:48.967Z,22.92
2023-04-30T06:56:49.074Z,22.92
2023-04-30T06:57:49.086Z,22.92
2023-04-30T06:58:49.146Z,22.92
2023-04-30T06:59:49.218Z,22.92
2023-04-30T07:00:49.284Z,22.93
2023-04-30T07:01:49.576Z,22.92
2023-04-30T07:02:49.466Z,22.93
2023-04-30T07:03:49.693Z,22.94
2023-04-30T07:04:49.612Z,22.93
2023-04-30T07:05:49.549Z,22.94
2023-04-30T07:06:49.657Z,22.94
2023-04-30T07:07:49.680Z,22.94
2023-04-30T07:08:49.739Z,22.94
2023-04-30T07:09:51.578Z,22.94
2023-04-30T07:10:49.947Z,22.94
2023-04-30T07:11:49.907Z,22.94
2023-04-30T07:12:49.976Z,22.95
2023-04-30T07:13:50.043Z,22.96
2023-04-30T07:14:50.109Z,22.95
2023-04-30T07:15:50.184Z,22.95
2023-04-30T07:16:50.254Z,22.96
2023-04-30T07:17:50.364Z,22.95
2023-04-30T07:18:50.330Z,22.96
2023-04-30T07:19:50.405Z,22.95
2023-04-30T07:20:50.429Z,22.95
2023-04-30T07:21:50.496Z,22.96
2023-04-30T07:22:50.565Z,22.96
2023-04-30T07:23:50.625Z,22.95
2023-04-30T07:24:50.686Z,22.95
2023-04-30T07:25:50.748Z,22.95
2023-04-30T07:26:50.802Z,22.96
2023-04-30T07:27:50.862Z,22.96
2023-04-30T07:28:50.924Z,22.96
2023-04-30T07:29:50.981Z,22.96
2023-04-30T07:30:51.051Z,22.96
2023-04-30T07:31:51.129Z,22.96
2023-04-30T07:32:51.249Z,22.97
2023-04-30T07:33:51.208Z,22.96
2023-04-30T07:34:51.245Z,22.97
2023-04-30T07:35:51.321Z,22.97
2023-04-30T07:36:51.402Z,22.97
2023-04-30T07:37:51.429Z,22.97
2023-04-30T07:38:51.473Z,22.97
2023-04-30T07:39:51.650Z,22.98
2023-04-30T07:40:51.634Z,22.98
2023-04-30T07:41:51.655Z,22.98
2023-04-30T07:42:51.740Z,22.98
2023-04-30T07:43:51.769Z,22.98
2023-04-30T07:44:51.810Z,22.99
2023-04-30T07:45:51.907Z,22.99
2023-04-30T07:46:51.906Z,22.99
2023-04-30T07:47:52.585Z,22.99
2023-04-30T07:48:52.029Z,23.00
2023-04-30T07:49:52.131Z,22.99
2023-04-30T07:50:52.927Z,22.99
2023-04-30T07:51:52.195Z,22.99
2023-04-30T07:52:52.265Z,23.00
2023-04-30T07:53:52.316Z,22.99
2023-04-30T07:54:52.372Z,23.00
2023-04-30T07:55:52.447Z,23.00
2023-04-30T07:56:52.533Z,23.00
2023-04-30T07:57:53.062Z,23.00
2023-04-30T07:58:52.638Z,23.00
2023-04-30T07:59:53.249Z,23.00
2023-04-30T08:00:52.757Z,23.00
2023-04-30T08:01:52.808Z,23.01
2023-04-30T08:02:53.002Z,23.00
2023-04-30T08:03:52.948Z,23.01
2023-04-30T08:04:53.005Z,23.01
2023-04-30T08:05:53.013Z,23.01
2023-04-30T08:06:53.078Z,23.01
2023-04-30T08:07:53.150Z,23.01
2023-04-30T08:08:53.168Z,23.02
2023-04-30T08:09:53.741Z,23.02
2023-04-30T08:10:53.251Z,23.02
2023-04-30T08:11:53.318Z,23.02
2023-04-30T08:12:53.420Z,23.03
2023-04-30T08:13:53.418Z,23.03
2023-04-30T08:14:53.470Z,23.04
2023-04-30T08:15:53.547Z,23.03
2023-04-30T08:16:53.590Z,23.03
2023-04-30T08:17:53.735Z,23.04
2023-04-30T08:18:53.705Z,23.04
2023-04-30T08:19:53.895Z,23.04
2023-04-30T08:20:53.799Z,23.04
2023-04-30T08:21:53.867Z,23.05
2023-04-30T08:22:53.892Z,23.05
2023-04-30T08:23:53.965Z,23.05
2023-04-30T08:24:54.033Z,23.05
2023-04-30T08:25:54.098Z,23.04
2023-04-30T08:26:54.855Z,23.05
2023-04-30T08:27:54.183Z,23.05
2023-04-30T08:28:54.203Z,23.06
2023-04-30T08:29:54.437Z,23.06
2023-04-30T08:30:54.328Z,23.05
2023-04-30T08:31:54.453Z,23.05
2023-04-30T08:32:57.399Z,23.06
2023-04-30T08:33:54.398Z,23.07
2023-04-30T08:34:54.597Z,23.07
2023-04-30T08:35:54.384Z,23.06
2023-04-30T08:36:54.401Z,23.06
2023-04-30T08:37:54.379Z,23.06
2023-04-30T08:38:54.395Z,23.07
2023-04-30T08:39:54.463Z,23.07
2023-04-30T08:40:54.367Z,23.08
2023-04-30T08:41:54.353Z,23.08
2023-04-30T08:42:54.368Z,23.08
2023-04-30T08:43:54.322Z,23.09
2023-04-30T08:44:54.388Z,23.09
2023-04-30T08:45:54.328Z,23.10
2023-04-30T08:46:54.326Z,23.11
2023-04-30T08:47:54.638Z,23.11
2023-04-30T08:48:54.309Z,23.11
2023-04-30T08:49:55.143Z,23.11
2023-04-30T08:50:54.290Z,23.13
2023-04-30T08:51:54.270Z,23.13
2023-04-30T08:52:54.277Z,23.13
2023-04-30T08:53:54.252Z,23.13
2023-04-30T08:54:54.266Z,23.14
2023-04-30T08:55:54.272Z,23.14
2023-04-30T08:56:54.255Z,23.15
2023-04-30T08:57:54.232Z,23.15
2023-04-30T08:58:54.235Z,23.15
2023-04-30T08:59:54.331Z,23.16
2023-04-30T09:00:54.225Z,23.16
2023-04-30T09:01:54.229Z,23.16
2023-04-30T09:02:54.405Z,23.17
2023-04-30T09:03:54.283Z,23.17
2023-04-30T09:04:54.201Z,23.17
2023-04-30T09:05:54.194Z,23.17
2023-04-30T09:06:54.155Z,23.17
2023-04-30T09:08:03.199Z,23.18
2023-04-30T09:08:55.176Z,23.18
2023-04-30T09:09:54.302Z,23.19
2023-04-30T09:10:54.166Z,23.19
2023-04-30T09:11:54.126Z,23.18
2023-04-30T09:12:54.136Z,23.19
2023-04-30T09:13:54.125Z,23.19
2023-04-30T09:14:54.120Z,23.18
2023-04-30T09:15:54.138Z,23.18
2023-04-30T09:16:54.117Z,23.18
2023-04-30T09:17:54.121Z,23.19
2023-04-30T09:18:54.142Z,23.19
2023-04-30T09:19:54.168Z,23.19
2023-04-30T09:20:54.073Z,23.19
2023-04-30T09:21:54.050Z,23.20
2023-04-30T09:22:54.065Z,23.19
2023-04-30T09:23:54.050Z,23.21
2023-04-30T09:24:54.095Z,23.21
2023-04-30T09:25:54.120Z,23.21
2023-04-30T09:26:54.158Z,23.21
2023-04-30T09:27:54.208Z,23.21
2023-04-30T09:28:54.280Z,23.22
2023-04-30T09:29:54.681Z,23.22
2023-04-30T09:30:54.272Z,23.23
2023-04-30T09:31:54.404Z,23.24
2023-04-30T09:32:54.381Z,23.24
2023-04-30T09:33:54.388Z,23.24
2023-04-30T09:34:54.401Z,23.25
2023-04-30T09:35:54.423Z,23.25
2023-04-30T09:36:54.484Z,23.26
2023-04-30T09:37:54.499Z,23.26
2023-04-30T09:38:54.525Z,23.27
2023-04-30T09:39:54.859Z,23.28
2023-04-30T09:40:54.601Z,23.29
2023-04-30T09:41:54.617Z,23.29
2023-04-30T09:42:54.656Z,23.30
2023-04-30T09:43:54.676Z,23.30
2023-04-30T09:44:54.684Z,23.31
2023-04-30T09:45:54.749Z,23.32
2023-04-30T09:46:54.795Z,23.32
2023-04-30T09:47:57.745Z,23.35
2023-04-30T09:48:55.776Z,23.36
2023-04-30T09:49:55.073Z,23.37
2023-04-30T09:50:54.755Z,23.38
2023-04-30T09:51:54.759Z,23.39
2023-04-30T09:52:54.752Z,23.39
2023-04-30T09:53:54.750Z,23.41
2023-04-30T09:54:54.730Z,23.41
2023-04-30T09:55:56.257Z,23.42
2023-04-30T09:56:54.700Z,23.42
2023-04-30T09:57:54.718Z,23.42
2023-04-30T09:58:54.675Z,23.43
2023-04-30T09:59:54.841Z,23.43
2023-04-30T10:00:54.735Z,23.43
2023-04-30T10:01:54.668Z,23.43
2023-04-30T10:02:54.699Z,23.44
2023-04-30T10:03:54.702Z,23.43
2023-04-30T10:04:54.646Z,23.43
2023-04-30T10:05:54.721Z,23.44
2023-04-30T10:06:54.637Z,23.44
2023-04-30T10:07:54.644Z,23.45
2023-04-30T10:08:54.610Z,23.45
2023-04-30T10:09:54.839Z,23.45
2023-04-30T10:10:54.611Z,23.47
2023-04-30T10:11:54.613Z,23.47
2023-04-30T10:12:54.600Z,23.48
2023-04-30T10:13:54.555Z,23.48
2023-04-30T10:14:54.586Z,23.49
2023-04-30T10:15:54.594Z,23.49
2023-04-30T10:16:54.751Z,23.50
2023-04-30T10:17:54.611Z,23.51
2023-04-30T10:18:54.543Z,23.52
2023-04-30T10:19:54.685Z,23.52
2023-04-30T10:20:54.535Z,23.53
2023-04-30T10:21:54.571Z,23.54
2023-04-30T10:22:54.623Z,23.54
2023-04-30T10:23:54.531Z,23.54
2023-04-30T10:24:54.495Z,23.55
2023-04-30T10:25:54.522Z,23.57
2023-04-30T10:26:54.484Z,23.59
2023-04-30T10:27:54.506Z,23.60
2023-04-30T10:28:54.469Z,23.60
2023-04-30T10:29:54.668Z,23.59
2023-04-30T10:30:54.462Z,23.59
2023-04-30T10:31:54.490Z,23.60
2023-04-30T10:32:54.464Z,23.60
2023-04-30T10:33:54.421Z,23.60
2023-04-30T10:34:54.430Z,23.61
2023-04-30T10:35:54.447Z,23.61
2023-04-30T10:36:54.412Z,23.61
2023-04-30T10:37:54.440Z,23.62
2023-04-30T10:38:54.405Z,23.62
2023-04-30T10:39:54.616Z,23.63
2023-04-30T10:40:54.388Z,23.66
2023-04-30T10:41:54.373Z,23.68
2023-04-30T10:42:54.372Z,23.68
2023-04-30T10:43:54.351Z,23.68
2023-04-30T10:44:54.363Z,23.68
2023-04-30T10:45:54.343Z,23.69
2023-04-30T10:46:54.353Z,23.69
2023-04-30T10:47:54.398Z,23.69
2023-04-30T10:48:54.329Z,23.71
2023-04-30T10:49:54.433Z,23.70
2023-04-30T10:50:54.318Z,23.71
2023-04-30T10:51:54.330Z,23.71
2023-04-30T10:52:54.301Z,23.74
2023-04-30T10:53:54.318Z,23.76
2023-04-30T10:54:54.485Z,23.76
2023-04-30T10:55:54.321Z,23.76
2023-04-30T10:56:54.276Z,23.76
2023-04-30T10:57:54.268Z,23.77
2023-04-30T10:58:54.266Z,23.77
2023-04-30T10:59:54.465Z,23.77
2023-04-30T11:00:54.244Z,23.77
2023-04-30T11:01:54.380Z,23.77
2023-04-30T11:02:54.304Z,23.79
2023-04-30T11:03:54.304Z,23.79
2023-04-30T11:04:54.390Z,23.78
2023-04-30T11:05:54.504Z,23.80
2023-04-30T11:06:54.519Z,23.79
2023-04-30T11:07:54.591Z,23.79
2023-04-30T11:08:54.660Z,23.79
2023-04-30T11:09:54.827Z,23.79
2023-04-30T11:10:54.797Z,23.80
2023-04-30T11:11:54.833Z,23.82
2023-04-30T11:12:54.936Z,23.83
2023-04-30T11:13:54.955Z,23.84
2023-04-30T11:14:55.024Z,23.84
2023-04-30T11:15:55.129Z,23.86
2023-04-30T11:16:55.107Z,23.87
2023-04-30T11:17:55.219Z,23.87
2023-04-30T11:18:55.225Z,23.89
2023-04-30T11:19:55.536Z,23.90
2023-04-30T11:20:55.334Z,23.90
2023-04-30T11:21:55.407Z,23.91
2023-04-30T11:22:55.430Z,23.92
2023-04-30T11:23:55.502Z,23.94
2023-04-30T11:24:55.524Z,23.94
2023-04-30T11:25:55.593Z,23.95
2023-04-30T11:26:55.667Z,23.95
2023-04-30T11:27:55.762Z,23.95
2023-04-30T11:28:55.778Z,23.97
2023-04-30T11:29:56.092Z,23.97
2023-04-30T11:30:55.924Z,23.98
2023-04-30T11:31:56.018Z,23.98
2023-04-30T11:32:55.999Z,23.99
2023-04-30T11:33:56.041Z,24.00
2023-04-30T11:34:56.124Z,24.01
2023-04-30T11:35:56.141Z,24.02
2023-04-30T11:36:56.191Z,24.02
2023-04-30T11:37:56.226Z,24.02
2023-04-30T11:38:56.308Z,24.02
2023-04-30T11:39:56.620Z,24.05
2023-04-30T11:40:56.381Z,24.05
2023-04-30T11:41:56.396Z,24.06
2023-04-30T11:42:56.462Z,24.05
2023-04-30T11:43:56.494Z,24.05
2023-04-30T11:44:56.561Z,24.04
2023-04-30T11:45:56.719Z,24.04
2023-04-30T11:46:56.708Z,24.05
2023-04-30T11:47:56.838Z,24.04
2023-04-30T11:48:56.729Z,24.05
2023-04-30T11:49:57.017Z,24.07
2023-04-30T11:50:56.828Z,24.09
2023-04-30T11:51:56.844Z,24.09
2023-04-30T11:52:56.917Z,24.10
2023-04-30T11:53:56.944Z,24.12
2023-04-30T11:54:56.995Z,24.13
2023-04-30T11:55:57.027Z,24.12
2023-04-30T11:56:57.035Z,24.13
2023-04-30T11:57:57.210Z,24.13
2023-04-30T11:58:57.148Z,24.13
2023-04-30T11:59:57.305Z,24.13
2023-04-30T12:00:57.212Z,24.13
2023-04-30T12:01:57.239Z,24.14
2023-04-30T12:02:57.494Z,24.15
2023-04-30T12:03:57.495Z,24.15
2023-04-30T12:04:57.339Z,24.16
2023-04-30T12:05:57.432Z,24.16
2023-04-30T12:06:57.428Z,24.16
2023-04-30T12:07:57.454Z,24.16
2023-04-30T12:08:57.481Z,24.17
2023-04-30T12:09:57.854Z,24.17
2023-04-30T12:10:57.556Z,24.17
2023-04-30T12:11:57.621Z,24.18
2023-04-30T12:12:57.592Z,24.18
2023-04-30T12:13:57.664Z,24.19
2023-04-30T12:14:57.693Z,24.19
2023-04-30T12:15:57.711Z,24.20
2023-04-30T12:16:57.819Z,24.19
2023-04-30T12:17:57.862Z,24.20
2023-04-30T12:18:57.840Z,24.20
2023-04-30T12:19:57.827Z,24.20
2023-04-30T12:20:57.911Z,24.20
2023-04-30T12:21:57.911Z,24.21
2023-04-30T12:22:57.940Z,24.21
2023-04-30T12:23:57.952Z,24.21
2023-04-30T12:24:57.972Z,24.21
2023-04-30T12:25:57.982Z,24.21
2023-04-30T12:26:58.105Z,24.22
2023-04-30T12:27:58.094Z,24.21
2023-04-30T12:28:58.092Z,24.23
2023-04-30T12:29:58.107Z,24.23
2023-04-30T12:30:58.130Z,24.22
2023-04-30T12:31:58.197Z,24.23
2023-04-30T12:32:58.253Z,24.22
2023-04-30T12:33:58.185Z,24.23
2023-04-30T12:34:58.255Z,24.22
2023-04-30T12:35:58.268Z,24.22
2023-04-30T12:36:58.304Z,24.20
2023-04-30T12:37:58.311Z,24.20
2023-04-30T12:38:58.315Z,24.21
2023-04-30T12:39:58.345Z,24.21
2023-04-30T12:40:58.382Z,24.22
2023-04-30T12:41:58.398Z,24.22
2023-04-30T12:42:58.450Z,24.21
2023-04-30T12:43:58.473Z,24.22
2023-04-30T12:44:58.489Z,24.22
2023-04-30T12:45:58.536Z,24.22
2023-04-30T12:46:58.550Z,24.21
2023-04-30T12:47:58.694Z,24.22
2023-04-30T12:48:58.608Z,24.21
2023-04-30T12:49:58.635Z,24.22
2023-04-30T12:50:58.708Z,24.21
2023-04-30T12:51:58.689Z,24.22
2023-04-30T12:52:58.743Z,24.21